Stockerau, Austria
Current Conditions -  °F | °C
As of 9:20 PM on Thursday 18 Dec 2014 (Local Time) from LOWW Reporting Station
Broken Clouds Broken Clouds  
Wind Chill: 43°   Ceiling: 2700
Heat Index: 46°   Visibility: 6mi
Dew Point: 43°   Wind: 7mph
Humidity: 87%   Direction: 170°S
Pressure: 30.03"   Gusts: NA
Location:  48.39°N, 16.23°E
Report Text: LOWW 181920Z 17006KT 9999 BKN027 BKN066 08/06 Q1017 NOSIG
Loading
Personal Weather Stations






























Interactive Weather Map New forecast layout! Learn more

10-Day Weather Forecast

Advertisements
Track Severe Weather on mobile